Terminal Aerodrome Forecast
Issued by NWS

Home | Current Version | Previous Version | Text Only | Print | Product List | Glossary Off
Versions: 1 2 3 4 5 6 7 8 9 10 11 12

000
FTUS43 KMPX 162334
TAFRWF
TAF
KRWF 162334Z 1700/1724 14007KT P6SM SCT250
     FM170400 19005KT P6SM SCT200
     FM172100 24008KT P6SM SCT200=

USA.gov is the U.S. government's official web portal to all federal, state and local government web resources and services.